Terminal Aerodrome Forecast
Issued by NWS Duluth, MN

Home | Current Version | Previous Version | Text Only | Print | Product List | Glossary On
Versions: 1 2 3 4 5 6 7 8 9 10 11 12 13 14 15 16 17 18 19 20 21 22 23 24
000
FTUS43 KDLH 271200 AAB
TAFDLH
TAF AMD
KDLH 271246Z 2713/2812 34005KT P6SM -RA BKN012 OVC025
      TEMPO 2713/2716 4SM -RA BKN009 OVC021
     FM271600 36008KT 5SM -SHRA BR BKN018 OVC040
     FM271900 03011G16KT P6SM VCSH SCT025 BKN035
     FM272300 01006KT P6SM FEW035 SCT250=

USA.gov is the U.S. government's official web portal to all federal, state and local government web resources and services.